Time;durP1;ratioP1;P1;durP2;ratioP2;P2;SDS_P1;SDS_P2;PMS_P1;PMS_P2;Temp;Humidity;BMP_temperature;BMP_pressure;BME280_temperature;BME280_humidity;BME280_pressure;Samples;Min_cycle;Max_cycle;Signal;HPM_P1;HPM_P2
2024/01/01 05:32:13;;;;;;;0.10;0.10;;;7.20;83.00;;;;;;5046819;23;20762;-77
2024/01/01 05:34:41;;;;;;;0.10;0.10;;;7.20;83.10;;;;;;4933208;29;20059;-77
2024/01/01 05:37:06;;;;;;;0.10;0.10;;;7.20;83.10;;;;;;4934477;29;20023;-77
2024/01/01 05:39:32;;;;;;;0.10;0.10;;;7.20;83.10;;;;;;4910831;29;20021;-77
2024/01/01 05:41:57;;;;;;;0.10;0.10;;;7.20;83.10;;;;;;4935301;29;20032;-77
2024/01/01 05:44:23;;;;;;;0.10;0.10;;;7.20;83.10;;;;;;4922658;29;20020;-77
2024/01/01 05:46:49;;;;;;;0.10;0.10;;;7.20;83.00;;;;;;4922583;29;20028;-77
2024/01/01 05:49:15;;;;;;;0.10;0.10;;;7.20;83.00;;;;;;4924576;29;20036;-77
2024/01/01 05:51:41;;;;;;;0.10;0.10;;;7.20;83.10;;;;;;4932339;29;20029;-77
2024/01/01 05:54:07;;;;;;;0.13;0.13;;;7.20;83.10;;;;;;4901408;29;20554;-77
2024/01/01 05:56:32;;;;;;;0.10;0.10;;;7.30;83.00;;;;;;4901775;29;20055;-77
2024/01/01 05:58:58;;;;;;;0.10;0.10;;;7.20;82.90;;;;;;4885441;29;20411;-77
2024/01/01 06:01:23;;;;;;;0.10;0.10;;;7.30;83.00;;;;;;4912019;29;20467;-77
2024/01/01 06:03:49;;;;;;;0.10;0.10;;;7.30;83.00;;;;;;4920410;29;20034;-77
2024/01/01 06:06:15;;;;;;;0.13;0.13;;;7.30;83.00;;;;;;4908726;29;20055;-77
2024/01/01 06:08:41;;;;;;;0.10;0.10;;;7.30;83.00;;;;;;4939349;29;20098;-78
2024/01/01 06:11:06;;;;;;;0.10;0.10;;;7.30;82.80;;;;;;4926179;29;20522;-77
2024/01/01 06:13:32;;;;;;;0.10;0.10;;;7.20;82.90;;;;;;4898590;29;20033;-77
2024/01/01 06:15:58;;;;;;;0.10;0.10;;;7.20;82.90;;;;;;4903278;29;20032;-77
2024/01/01 06:18:25;;;;;;;0.10;0.10;;;7.20;83.00;;;;;;4904722;29;20091;-77
2024/01/01 06:20:50;;;;;;;0.10;0.10;;;7.20;83.00;;;;;;4899186;29;20161;-77
2024/01/01 06:23:17;;;;;;;0.20;0.20;;;7.20;83.10;;;;;;4904920;29;20064;-77
2024/01/01 06:25:42;;;;;;;0.10;0.10;;;7.20;83.20;;;;;;4905108;29;20020;-77
2024/01/01 06:28:08;;;;;;;0.10;0.10;;;7.20;83.20;;;;;;4904504;29;20558;-77
2024/01/01 06:30:34;;;;;;;0.10;0.10;;;7.20;83.20;;;;;;4916849;29;20080;-77
2024/01/01 06:33:01;;;;;;;0.10;0.10;;;7.20;83.20;;;;;;4923300;29;20026;-77
2024/01/01 06:35:30;;;;;;;0.10;0.10;;;7.10;83.20;;;;;;4923880;29;20506;-77
2024/01/01 06:37:56;;;;;;;0.10;0.10;;;7.20;83.20;;;;;;4902205;29;20037;-77
2024/01/01 06:40:22;;;;;;;0.10;0.10;;;7.20;83.20;;;;;;4917781;29;20024;-77
2024/01/01 06:42:48;;;;;;;0.10;0.10;;;7.20;83.30;;;;;;4925414;29;20030;-77
2024/01/01 06:45:15;;;;;;;0.10;0.10;;;7.10;83.20;;;;;;4942717;29;20388;-77
2024/01/01 06:47:41;;;;;;;0.10;0.10;;;7.10;83.30;;;;;;4922441;29;20096;-77
2024/01/01 06:50:06;;;;;;;0.10;0.10;;;7.10;83.40;;;;;;4904715;29;20032;-77
2024/01/01 06:52:32;;;;;;;0.10;0.10;;;7.20;83.40;;;;;;4904313;29;20032;-77
2024/01/01 06:54:59;;;;;;;0.10;0.10;;;7.10;83.30;;;;;;4904680;29;20029;-77
2024/01/01 06:57:24;;;;;;;0.10;0.10;;;7.10;83.40;;;;;;4904744;29;20025;-77
2024/01/01 06:59:51;;;;;;;0.10;0.10;;;7.20;83.30;;;;;;4907879;29;20032;-77
2024/01/01 07:02:16;;;;;;;0.10;0.10;;;7.20;83.40;;;;;;4906643;29;20076;-77
2024/01/01 07:04:42;;;;;;;0.10;0.10;;;7.20;83.50;;;;;;4914168;29;20032;-77
2024/01/01 07:07:08;;;;;;;0.10;0.10;;;7.20;83.50;;;;;;4920478;29;20385;-77
2024/01/01 07:09:34;;;;;;;0.10;0.10;;;7.20;83.40;;;;;;4923103;29;20036;-77
2024/01/01 07:12:23;;;;;;;0.10;0.10;;;7.20;83.60;;;;;;4923020;29;20024;-77
2024/01/01 07:14:49;;;;;;;0.10;0.10;;;7.10;83.80;;;;;;4903974;29;20032;-77
2024/01/01 07:17:16;;;;;;;0.10;0.10;;;7.00;83.90;;;;;;4903004;29;20061;-77
2024/01/01 07:19:42;;;;;;;0.10;0.10;;;7.10;84.10;;;;;;4903973;29;20056;-77
2024/01/01 07:22:08;;;;;;;0.10;0.10;;;7.00;84.10;;;;;;4904058;29;20025;-77
2024/01/01 07:24:34;;;;;;;0.10;0.10;;;7.10;84.10;;;;;;4903691;29;20029;-77
2024/01/01 07:27:00;;;;;;;0.10;0.10;;;7.00;84.30;;;;;;4922436;29;20031;-77
2024/01/01 07:29:27;;;;;;;0.10;0.10;;;7.00;84.30;;;;;;4905764;29;20028;-77
2024/01/01 07:31:53;;;;;;;0.10;0.10;;;7.10;84.30;;;;;;4916562;29;20131;-77
2024/01/01 07:34:19;;;;;;;0.10;0.10;;;7.10;84.40;;;;;;4918980;29;20032;-77
2024/01/01 07:36:46;;;;;;;0.10;0.10;;;7.10;84.40;;;;;;4915969;29;20054;-77
2024/01/01 07:39:12;;;;;;;0.10;0.10;;;7.10;84.50;;;;;;4921419;29;20056;-77
2024/01/01 07:41:38;;;;;;;0.10;0.10;;;7.10;84.40;;;;;;4939116;29;20111;-77
2024/01/01 07:44:04;;;;;;;0.10;0.10;;;7.10;84.50;;;;;;4909030;29;20035;-77
2024/01/01 07:46:30;;;;;;;0.10;0.10;;;7.10;84.60;;;;;;4903602;29;20449;-77
2024/01/01 07:48:56;;;;;;;0.10;0.10;;;7.10;84.60;;;;;;4918370;29;20033;-77
2024/01/01 07:51:22;;;;;;;0.20;0.20;;;7.10;84.60;;;;;;4903345;29;20400;-77
2024/01/01 07:53:48;;;;;;;0.10;0.10;;;7.10;84.60;;;;;;4903798;29;20025;-77
2024/01/01 07:56:14;;;;;;;0.10;0.10;;;7.10;84.50;;;;;;4903595;29;20033;-77
2024/01/01 07:58:40;;;;;;;0.10;0.10;;;7.10;84.50;;;;;;4902990;29;20040;-77
2024/01/01 08:01:06;;;;;;;0.10;0.10;;;7.10;84.40;;;;;;4916846;29;20115;-77
2024/01/01 08:03:32;;;;;;;0.10;0.10;;;7.10;84.60;;;;;;4922135;29;20032;-77
2024/01/01 08:05:58;;;;;;;0.10;0.10;;;7.20;84.60;;;;;;4918426;29;20028;-77
2024/01/01 08:08:24;;;;;;;0.10;0.10;;;7.20;84.60;;;;;;4921781;29;20034;-77
2024/01/01 08:10:50;;;;;;;0.10;0.10;;;7.20;84.50;;;;;;4922159;29;20032;-77
2024/01/01 08:13:15;;;;;;;0.10;0.10;;;7.30;84.60;;;;;;4921945;29;20491;-77
2024/01/01 08:15:41;;;;;;;0.20;0.17;;;7.30;84.50;;;;;;4912156;29;20044;-77
2024/01/01 08:18:07;;;;;;;0.10;0.10;;;7.30;84.50;;;;;;4910074;29;20055;-77
2024/01/01 08:20:32;;;;;;;0.10;0.10;;;7.30;84.50;;;;;;4904181;29;20387;-77
2024/01/01 08:22:58;;;;;;;0.10;0.10;;;7.40;84.60;;;;;;4921543;29;20024;-77
2024/01/01 08:25:24;;;;;;;0.10;0.10;;;7.50;84.60;;;;;;4921676;29;20039;-77
2024/01/01 08:27:49;;;;;;;0.10;0.10;;;7.50;84.70;;;;;;4914821;29;20031;-77
2024/01/01 08:30:15;;;;;;;0.10;0.10;;;7.50;84.80;;;;;;4902794;29;20036;-77
2024/01/01 08:32:41;;;;;;;0.10;0.10;;;7.60;84.70;;;;;;4902908;29;20052;-77
2024/01/01 08:35:07;;;;;;;0.20;0.20;;;7.70;84.60;;;;;;4902043;29;20029;-77
2024/01/01 08:37:32;;;;;;;0.20;0.20;;;7.70;84.60;;;;;;4903123;29;20072;-77
2024/01/01 08:39:58;;;;;;;0.10;0.10;;;7.70;84.50;;;;;;4918460;29;20027;-77
2024/01/01 08:42:25;;;;;;;0.10;0.10;;;7.70;84.50;;;;;;4902753;29;20032;-77
2024/01/01 08:44:52;;;;;;;0.10;0.10;;;7.70;84.70;;;;;;4885375;29;20029;-77
2024/01/01 08:47:17;;;;;;;0.13;0.13;;;7.70;84.80;;;;;;4902612;29;20020;-77
2024/01/01 08:49:43;;;;;;;0.20;0.20;;;7.70;84.80;;;;;;4902311;29;20109;-77
2024/01/01 08:52:09;;;;;;;0.10;0.10;;;7.70;84.90;;;;;;4902450;29;20484;-77
2024/01/01 08:54:34;;;;;;;0.10;0.10;;;7.70;84.90;;;;;;4902446;29;20476;-77
2024/01/01 08:57:00;;;;;;;0.10;0.10;;;7.70;85.00;;;;;;4899924;29;20040;-77
2024/01/01 08:59:26;;;;;;;0.20;0.20;;;7.70;85.00;;;;;;4902657;29;20033;-77
2024/01/01 09:01:51;;;;;;;0.20;0.20;;;7.70;85.10;;;;;;4921270;29;20021;-77
2024/01/01 09:04:20;;;;;;;0.10;0.10;;;7.70;85.00;;;;;;4904340;29;20535;-78
2024/01/01 09:06:46;;;;;;;0.10;0.10;;;7.70;85.00;;;;;;4903991;29;20387;-77
2024/01/01 09:09:11;;;;;;;0.10;0.10;;;7.70;85.20;;;;;;4904263;29;20028;-77
2024/01/01 09:11:37;;;;;;;0.10;0.10;;;7.70;85.10;;;;;;4902292;29;20032;-77
2024/01/01 09:14:03;;;;;;;0.10;0.10;;;7.80;85.00;;;;;;4901880;29;20036;-77
2024/01/01 09:16:29;;;;;;;0.20;0.20;;;7.80;84.90;;;;;;4901917;29;20037;-77
2024/01/01 09:18:59;;;;;;;0.10;0.10;;;7.90;84.80;;;;;;4918656;29;20071;-77
2024/01/01 09:21:26;;;;;;;0.10;0.10;;;8.00;84.70;;;;;;4904034;29;20031;-77
2024/01/01 09:23:57;;;;;;;0.20;0.20;;;8.00;84.50;;;;;;4915983;29;20021;-76
2024/01/01 09:26:24;;;;;;;0.20;0.20;;;8.10;84.40;;;;;;4902016;29;20084;-77
2024/01/01 09:28:50;;;;;;;0.10;0.10;;;8.20;84.30;;;;;;4885275;29;20544;-76
2024/01/01 09:31:15;;;;;;;0.20;0.20;;;8.20;84.20;;;;;;4891153;29;20057;-77
2024/01/01 09:33:41;;;;;;;0.10;0.10;;;8.30;83.90;;;;;;4900869;29;20071;-79
2024/01/01 09:36:07;;;;;;;0.10;0.10;;;8.30;83.80;;;;;;4908775;29;20024;-77
2024/01/01 09:38:33;;;;;;;0.10;0.10;;;8.40;83.80;;;;;;4916100;29;20043;-77
2024/01/01 09:40:58;;;;;;;0.10;0.10;;;8.40;83.70;;;;;;4930717;29;20114;-77
2024/01/01 09:43:24;;;;;;;0.10;0.10;;;8.40;83.60;;;;;;4938479;29;20032;-77
2024/01/01 09:45:50;;;;;;;0.15;0.15;;;8.50;83.40;;;;;;4936929;29;20201;-77
2024/01/01 09:48:16;;;;;;;0.10;0.10;;;8.60;83.40;;;;;;4901820;29;20538;-77
2024/01/01 09:50:48;;;;;;;0.20;0.20;;;8.60;83.20;;;;;;4900830;29;20488;-76
2024/01/01 09:53:13;;;;;;;0.10;0.10;;;8.70;83.10;;;;;;4900692;29;20071;-77
2024/01/01 09:55:39;;;;;;;0.20;0.20;;;8.80;82.90;;;;;;4900594;29;20033;-77
2024/01/01 09:58:05;;;;;;;0.10;0.10;;;8.80;82.70;;;;;;4904145;29;20124;-77
2024/01/01 10:00:30;;;;;;;0.20;0.20;;;8.90;82.60;;;;;;4914365;29;20077;-77
2024/01/01 10:03:16;;;;;;;0.10;0.10;;;9.00;82.50;;;;;;4908147;29;20044;-77
2024/01/01 10:05:43;;;;;;;0.15;0.15;;;9.10;82.30;;;;;;4910158;29;20118;-77
2024/01/01 10:08:11;;;;;;;0.10;0.10;;;9.10;82.20;;;;;;4923200;29;20121;-77
2024/01/01 10:10:38;;;;;;;0.10;0.10;;;9.20;82.10;;;;;;4908432;29;20112;-76
2024/01/01 10:13:09;;;;;;;0.10;0.10;;;9.20;82.00;;;;;;4905048;29;20047;-77
2024/01/01 10:15:37;;;;;;;0.10;0.10;;;9.30;81.90;;;;;;4907621;29;20016;-77
2024/01/01 10:18:14;;;;;;;0.10;0.10;;;9.40;81.90;;;;;;4923674;29;20028;-76
2024/01/01 10:20:42;;;;;;;0.10;0.10;;;9.40;81.80;;;;;;4924136;29;20024;-77
2024/01/01 10:23:20;;;;;;;0.10;0.10;;;9.40;81.90;;;;;;4917787;29;20029;-77
2024/01/01 10:25:46;;;;;;;0.10;0.10;;;9.40;81.70;;;;;;4905168;29;20795;-77
2024/01/01 10:28:16;;;;;;;0.10;0.10;;;9.50;81.80;;;;;;4904833;29;20037;-77
2024/01/01 10:30:46;;;;;;;0.10;0.10;;;9.70;81.60;;;;;;4909414;29;20066;-77
2024/01/01 10:33:14;;;;;;;0.10;0.10;;;9.70;81.40;;;;;;4910713;29;20025;-77
2024/01/01 10:35:43;;;;;;;0.10;0.10;;;9.70;81.20;;;;;;4909696;29;20088;-77
2024/01/01 10:38:11;;;;;;;0.10;0.10;;;9.80;81.30;;;;;;4923565;29;20031;-77
2024/01/01 10:40:37;;;;;;;0.10;0.10;;;9.90;81.20;;;;;;4921646;29;20052;-77
2024/01/01 10:43:04;;;;;;;0.20;0.20;;;10.00;80.80;;;;;;4904767;29;20084;-77
2024/01/01 10:45:29;;;;;;;0.10;0.10;;;10.10;80.40;;;;;;4905079;29;20084;-78
2024/01/01 10:47:59;;;;;;;0.10;0.10;;;10.20;80.30;;;;;;4904836;29;20586;-77
2024/01/01 10:50:30;;;;;;;0.10;0.10;;;10.20;80.20;;;;;;4904465;29;20559;-77
2024/01/01 10:52:56;;;;;;;0.10;0.10;;;10.20;80.10;;;;;;4904491;29;20029;-77
2024/01/01 10:55:50;;;;;;;0.10;0.10;;;10.30;80.00;;;;;;4904321;29;20935;-78
2024/01/01 10:58:23;;;;;;;;;;;10.30;79.90;;;;;;4904821;29;20036;-77
2024/01/01 11:01:12;;;;;;;0.10;0.10;;;10.30;79.60;;;;;;4906593;29;20313;-78
2024/01/01 11:03:38;;;;;;;0.10;0.10;;;10.50;79.40;;;;;;4907823;29;20044;-77
2024/01/01 11:06:26;;;;;;;0.10;0.10;;;10.60;78.90;;;;;;4912392;29;20111;-77
2024/01/01 11:08:56;;;;;;;0.10;0.10;;;10.70;78.80;;;;;;4904283;29;20033;-77
2024/01/01 11:11:33;;;;;;;0.10;0.10;;;10.60;78.80;;;;;;4904314;29;20025;-77
2024/01/01 11:13:59;;;;;;;0.10;0.10;;;10.60;78.90;;;;;;4892579;29;20024;-77
2024/01/01 11:16:26;;;;;;;0.10;0.10;;;10.50;78.60;;;;;;4922150;29;20031;-76
2024/01/01 11:18:52;;;;;;;0.10;0.10;;;10.50;78.60;;;;;;4902116;29;20112;-77
2024/01/01 11:21:28;;;;;;;0.10;0.10;;;10.60;78.80;;;;;;4887199;29;20119;-77
2024/01/01 11:23:54;;;;;;;0.10;0.10;;;10.70;78.40;;;;;;4903894;29;20112;-77
2024/01/01 11:26:22;;;;;;;0.20;0.20;;;10.80;78.30;;;;;;4903948;29;20056;-77
2024/01/01 11:28:49;;;;;;;0.10;0.10;;;10.80;78.10;;;;;;4903645;29;20040;-77
2024/01/01 11:31:15;;;;;;;0.10;0.10;;;10.70;78.00;;;;;;4906392;29;20044;-78
2024/01/01 11:33:40;;;;;;;0.10;0.10;;;10.80;78.20;;;;;;4903994;29;20043;-78
2024/01/01 11:36:10;;;;;;;0.10;0.10;;;10.80;78.00;;;;;;4921309;29;20043;-78
2024/01/01 11:38:37;;;;;;;0.10;0.10;;;10.90;78.20;;;;;;4906857;29;20060;-77
2024/01/01 11:41:04;;;;;;;0.10;0.10;;;10.90;78.00;;;;;;4933280;29;20020;-77
2024/01/01 11:43:30;;;;;;;0.10;0.10;;;11.00;78.10;;;;;;4936707;29;20464;-77
2024/01/01 11:45:56;;;;;;;0.10;0.10;;;11.00;78.10;;;;;;4903842;29;20047;-77
2024/01/01 11:48:22;;;;;;;0.10;0.10;;;11.00;78.20;;;;;;4903603;29;20033;-77
2024/01/01 11:50:49;;;;;;;0.10;0.10;;;11.00;78.50;;;;;;4902363;29;20044;-78
2024/01/01 11:53:23;;;;;;;0.10;0.10;;;11.10;78.30;;;;;;4903420;29;20036;-88
2024/01/01 11:55:50;;;;;;;0.10;0.10;;;11.10;78.50;;;;;;4918413;29;20028;-84
2024/01/01 11:58:17;;;;;;;0.10;0.10;;;11.20;78.50;;;;;;4902439;29;20039;-84
2024/01/01 12:00:43;;;;;;;0.10;0.10;;;11.20;78.60;;;;;;4921165;29;20024;-84
2024/01/01 12:03:09;;;;;;;0.10;0.10;;;11.20;78.90;;;;;;4918575;29;20400;-84
2024/01/01 12:05:34;;;;;;;0.10;0.10;;;11.20;79.00;;;;;;4920899;29;20032;-83
2024/01/01 12:08:12;;;;;;;0.10;0.10;;;11.30;79.10;;;;;;4920927;29;20063;-83
2024/01/01 12:10:37;;;;;;;0.10;0.10;;;11.20;79.20;;;;;;4920898;29;20123;-85
2024/01/01 12:13:03;;;;;;;0.10;0.10;;;11.30;79.40;;;;;;4914868;29;20028;-84
2024/01/01 12:15:32;;;;;;;0.10;0.10;;;11.30;79.60;;;;;;4903581;29;20396;-84
2024/01/01 12:17:58;;;;;;;0.10;0.10;;;11.30;79.60;;;;;;4902960;29;20025;-85
2024/01/01 12:20:24;;;;;;;0.10;0.10;;;11.30;79.60;;;;;;4915026;29;20650;-85
2024/01/01 12:22:52;;;;;;;0.10;0.10;;;11.20;79.90;;;;;;4902929;29;20035;-84
2024/01/01 12:25:24;;;;;;;0.10;0.10;;;11.20;80.20;;;;;;4920180;29;20032;-84
2024/01/01 12:28:04;;;;;;;0.15;0.15;;;11.20;80.40;;;;;;4919615;29;20044;-86
2024/01/01 12:30:31;;;;;;;0.10;0.10;;;11.20;80.70;;;;;;4915046;29;20391;-84
2024/01/01 12:32:57;;;;;;;0.10;0.10;;;11.20;80.80;;;;;;4921184;29;20039;-84
2024/01/01 12:35:23;;;;;;;0.10;0.10;;;11.20;80.80;;;;;;4905037;29;20020;-90
2024/01/01 12:37:50;;;;;;;0.10;0.10;;;11.30;81.10;;;;;;4920545;29;20028;-85
2024/01/01 12:40:16;;;;;;;0.10;0.10;;;11.30;81.10;;;;;;4904796;29;20111;-84
2024/01/01 12:42:42;;;;;;;0.10;0.10;;;11.30;81.20;;;;;;4904099;29;20059;-86
2024/01/01 12:45:07;;;;;;;0.10;0.10;;;11.30;81.50;;;;;;4916948;29;20484;-82
2024/01/01 12:47:33;;;;;;;0.10;0.10;;;11.30;81.50;;;;;;4918250;29;20024;-88
2024/01/01 12:49:59;;;;;;;0.10;0.10;;;11.30;81.70;;;;;;4904565;29;20440;-86
2024/01/01 12:52:30;;;;;;;0.10;0.10;;;11.40;81.60;;;;;;4917660;29;20491;-81
2024/01/01 12:54:56;;;;;;;0.10;0.10;;;11.50;81.50;;;;;;4914819;29;20032;-88
2024/01/01 12:57:22;;;;;;;0.10;0.10;;;11.50;81.50;;;;;;4901924;29;20036;-91
2024/01/01 12:59:47;;;;;;;0.10;0.10;;;11.50;81.50;;;;;;4901731;29;20035;-86
2024/01/01 13:02:13;;;;;;;0.10;0.10;;;11.50;81.40;;;;;;4903852;29;20021;-91
2024/01/01 13:04:39;;;;;;;0.10;0.10;;;11.50;81.60;;;;;;4900624;29;20032;-91
2024/01/01 13:07:04;;;;;;;0.08;0.08;;;11.50;81.30;;;;;;4902744;29;20020;-91
2024/01/01 13:09:30;;;;;;;0.10;0.10;;;11.70;81.20;;;;;;4904330;29;20032;-91
2024/01/01 13:11:56;;;;;;;0.10;0.10;;;11.70;81.20;;;;;;4902221;29;20024;-87
2024/01/01 13:14:21;;;;;;;0.10;0.10;;;11.80;81.10;;;;;;4900568;29;20104;-89
2024/01/01 13:16:48;;;;;;;0.10;0.10;;;11.70;81.10;;;;;;4902259;29;20068;-89
2024/01/01 13:19:14;;;;;;;0.10;0.10;;;11.70;81.40;;;;;;4901610;29;20035;-85
2024/01/01 13:21:40;;;;;;;0.10;0.10;;;11.70;81.50;;;;;;4904060;29;20391;-88
2024/01/01 13:24:08;;;;;;;0.10;0.10;;;11.70;81.20;;;;;;4920606;29;20032;-86
2024/01/01 13:26:37;;;;;;;0.10;0.10;;;11.70;81.40;;;;;;4905798;29;20911;-86
2024/01/01 13:29:03;;;;;;;0.10;0.10;;;11.80;81.40;;;;;;4900548;29;20040;-86
2024/01/01 13:31:29;;;;;;;0.10;0.10;;;11.70;81.60;;;;;;4906004;29;20085;-86
2024/01/01 13:33:55;;;;;;;0.10;0.10;;;11.70;81.80;;;;;;4916011;29;20943;-86
2024/01/01 13:36:20;;;;;;;0.10;0.10;;;11.80;81.70;;;;;;4914417;29;20096;-86
2024/01/01 13:38:46;;;;;;;0.10;0.10;;;12.00;81.60;;;;;;4914992;29;20558;-86
2024/01/01 13:41:12;;;;;;;0.10;0.10;;;12.00;81.40;;;;;;4919845;29;20035;-86
2024/01/01 13:43:38;;;;;;;0.10;0.10;;;11.90;81.70;;;;;;4917305;29;20028;-85
2024/01/01 13:46:04;;;;;;;0.10;0.10;;;11.90;81.90;;;;;;4919614;29;20115;-87
2024/01/01 13:48:30;;;;;;;0.10;0.10;;;11.90;82.10;;;;;;4920129;29;20052;-87
2024/01/01 13:50:56;;;;;;;0.05;0.05;;;11.80;81.70;;;;;;4920198;29;20028;-86
2024/01/01 13:53:25;;;;;;;0.10;0.10;;;11.80;82.50;;;;;;4916144;29;20032;-85
2024/01/01 13:55:51;;;;;;;0.10;0.10;;;11.80;82.10;;;;;;4915640;29;20029;-86
2024/01/01 13:58:17;;;;;;;0.10;0.10;;;11.80;82.20;;;;;;4918708;29;20379;-86
2024/01/01 14:00:48;;;;;;;0.10;0.10;;;11.80;82.40;;;;;;4917963;29;20099;-87
2024/01/01 14:03:16;;;;;;;0.10;0.10;;;11.80;82.30;;;;;;4916634;29;20024;-86
2024/01/01 14:05:42;;;;;;;0.10;0.10;;;11.80;82.40;;;;;;4918969;29;20360;-85
2024/01/01 14:08:08;;;;;;;0.10;0.10;;;11.80;82.60;;;;;;4917730;29;20083;-85
2024/01/01 14:10:33;;;;;;;0.10;0.10;;;11.80;82.40;;;;;;4919332;29;20024;-86
2024/01/01 14:12:59;;;;;;;0.10;0.10;;;11.80;82.30;;;;;;4917923;29;20021;-86
2024/01/01 14:15:26;;;;;;;0.10;0.10;;;11.70;82.60;;;;;;4916412;29;20025;-86
2024/01/01 14:17:52;;;;;;;0.10;0.10;;;11.70;82.60;;;;;;4915897;29;20078;-85
2024/01/01 14:20:18;;;;;;;0.10;0.10;;;11.80;82.60;;;;;;4917787;29;20083;-87
2024/01/01 14:22:45;;;;;;;0.10;0.10;;;11.80;82.50;;;;;;4918176;29;20025;-86
2024/01/01 14:25:10;;;;;;;0.10;0.10;;;11.70;82.30;;;;;;4917943;29;20095;-87
2024/01/01 14:27:37;;;;;;;0.10;0.10;;;11.80;82.30;;;;;;4916820;29;20032;-86
2024/01/01 14:30:05;;;;;;;0.10;0.10;;;11.80;82.30;;;;;;4918698;29;20027;-86
2024/01/01 14:32:31;;;;;;;0.10;0.10;;;11.80;82.40;;;;;;4918512;29;20056;-86
2024/01/01 14:34:56;;;;;;;0.10;0.10;;;11.70;82.40;;;;;;4917613;29;20115;-85
2024/01/01 14:37:22;;;;;;;0.10;0.10;;;11.80;82.40;;;;;;4918988;29;20036;-88
2024/01/01 14:39:48;;;;;;;0.10;0.10;;;11.70;82.60;;;;;;4921259;29;20063;-86
2024/01/01 14:42:13;;;;;;;0.10;0.10;;;11.70;82.60;;;;;;4918188;29;20472;-86
2024/01/01 14:44:39;;;;;;;0.10;0.10;;;11.70;82.60;;;;;;4923356;29;20028;-86
2024/01/01 14:47:06;;;;;;;0.10;0.10;;;11.70;82.60;;;;;;4921382;29;20483;-86
2024/01/01 14:49:32;;;;;;;0.10;0.10;;;11.70;82.50;;;;;;4920703;29;20021;-86
2024/01/01 14:51:58;;;;;;;0.10;0.10;;;11.70;82.50;;;;;;4923396;29;20060;-85
2024/01/01 14:54:23;;;;;;;0.10;0.10;;;11.80;82.40;;;;;;4920304;29;20099;-87
2024/01/01 14:56:49;;;;;;;0.10;0.10;;;11.70;82.00;;;;;;4916867;29;20134;-87
2024/01/01 14:59:15;;;;;;;0.10;0.10;;;11.80;82.00;;;;;;4922855;29;20554;-87
2024/01/01 15:01:41;;;;;;;0.10;0.10;;;11.70;82.00;;;;;;4922145;29;20538;-85
2024/01/01 15:04:08;;;;;;;0.10;0.10;;;11.70;81.80;;;;;;4923115;29;20451;-86
2024/01/01 15:06:34;;;;;;;0.10;0.10;;;11.70;81.70;;;;;;4922895;29;20032;-86
2024/01/01 15:09:00;;;;;;;0.00;0.00;;;11.70;81.90;;;;;;4913981;29;20025;-85
2024/01/01 15:11:25;;;;;;;0.10;0.10;;;11.70;81.80;;;;;;4922753;29;20036;-86
2024/01/01 15:13:51;;;;;;;0.10;0.10;;;11.70;81.70;;;;;;4921377;29;20083;-85
2024/01/01 15:16:17;;;;;;;0.10;0.10;;;11.70;81.50;;;;;;4920876;29;20032;-86
2024/01/01 15:18:44;;;;;;;0.10;0.10;;;11.70;81.60;;;;;;4921280;29;20487;-86
2024/01/01 15:21:10;;;;;;;0.10;0.10;;;11.70;81.50;;;;;;4922522;29;20027;-85
2024/01/01 15:23:37;;;;;;;0.10;0.10;;;11.70;81.40;;;;;;4919819;29;20028;-85
2024/01/01 15:26:03;;;;;;;0.10;0.10;;;11.60;81.40;;;;;;4920792;29;20467;-86
2024/01/01 15:28:29;;;;;;;0.20;0.20;;;11.60;81.40;;;;;;4921066;29;20091;-86
2024/01/01 15:30:55;;;;;;;0.10;0.10;;;11.70;81.80;;;;;;4917834;29;20447;-86
2024/01/01 15:33:23;;;;;;;0.10;0.10;;;11.70;82.20;;;;;;4922244;29;20031;-88
2024/01/01 15:35:48;;;;;;;0.03;0.03;;;11.60;82.40;;;;;;4921496;29;20096;-88
2024/01/01 15:38:14;;;;;;;0.10;0.10;;;11.60;82.60;;;;;;4922069;29;20420;-86
2024/01/01 15:40:39;;;;;;;0.10;0.10;;;11.60;82.80;;;;;;4917866;29;20080;-86
2024/01/01 15:43:08;;;;;;;0.10;0.10;;;11.60;82.90;;;;;;4922284;29;20075;-83
2024/01/01 15:45:36;;;;;;;0.10;0.10;;;11.50;83.10;;;;;;4920935;29;20448;-88
2024/01/01 15:48:06;;;;;;;0.10;0.10;;;11.50;83.50;;;;;;4921907;29;20023;-76
2024/01/01 15:50:32;;;;;;;0.00;0.00;;;11.40;83.80;;;;;;4921098;29;20028;-78
2024/01/01 15:52:58;;;;;;;0.10;0.10;;;11.30;84.20;;;;;;4918123;29;20087;-78
2024/01/01 15:55:24;;;;;;;0.10;0.10;;;11.30;84.80;;;;;;4921119;29;20099;-81
2024/01/01 15:57:50;;;;;;;0.10;0.10;;;11.20;85.50;;;;;;4921943;29;20028;-80
2024/01/01 16:00:16;;;;;;;0.05;0.05;;;11.20;86.00;;;;;;4913543;29;20064;-91
2024/01/01 16:02:42;;;;;;;0.10;0.10;;;11.20;86.50;;;;;;4922489;29;20088;-86
2024/01/01 16:05:09;;;;;;;0.00;0.00;;;11.20;86.80;;;;;;4925747;29;20028;-88
2024/01/01 16:07:35;;;;;;;0.10;0.10;;;11.00;87.40;;;;;;4906118;29;20107;-88
2024/01/01 16:10:01;;;;;;;0.10;0.10;;;11.00;87.80;;;;;;4903597;29;20033;-88
2024/01/01 16:12:26;;;;;;;0.10;0.10;;;11.00;88.10;;;;;;4916867;29;20044;-84
2024/01/01 16:14:52;;;;;;;0.00;0.00;;;10.90;88.30;;;;;;4902083;29;20149;-87
2024/01/01 16:17:18;;;;;;;0.10;0.10;;;10.90;88.60;;;;;;4917758;29;20035;-83
2024/01/01 16:19:44;;;;;;;0.10;0.10;;;10.90;88.90;;;;;;4914429;29;20036;-87
2024/01/01 16:22:13;;;;;;;0.10;0.10;;;10.90;89.00;;;;;;4920504;29;20552;-86
2024/01/01 16:24:39;;;;;;;0.10;0.10;;;10.80;89.10;;;;;;4920022;29;20035;-88
2024/01/01 16:27:05;;;;;;;0.10;0.10;;;10.80;89.30;;;;;;4921104;29;20020;-87
2024/01/01 16:29:30;;;;;;;0.10;0.10;;;10.80;89.50;;;;;;4921362;29;20020;-84
2024/01/01 16:31:56;;;;;;;0.00;0.00;;;10.80;89.60;;;;;;4890713;29;20060;-89
2024/01/01 16:34:22;;;;;;;0.10;0.10;;;10.80;89.90;;;;;;4899558;29;20100;-85
2024/01/01 16:36:55;;;;;;;0.10;0.10;;;10.80;90.00;;;;;;4904174;29;20029;-83
2024/01/01 16:39:22;;;;;;;0.10;0.10;;;10.80;90.20;;;;;;4866787;29;20036;-85
2024/01/01 16:41:49;;;;;;;0.10;0.10;;;10.70;90.40;;;;;;4887204;29;20080;-83
2024/01/01 16:44:14;;;;;;;0.10;0.10;;;10.70;90.90;;;;;;4883551;29;20028;-84
2024/01/01 16:46:40;;;;;;;0.05;0.05;;;10.70;91.00;;;;;;4900937;29;20028;-84
2024/01/01 16:49:09;;;;;;;0.10;0.10;;;10.70;91.00;;;;;;4884313;29;20040;-82
2024/01/01 16:51:36;;;;;;;0.10;0.10;;;10.60;91.20;;;;;;4899944;29;20041;-91
2024/01/01 16:54:03;;;;;;;0.10;0.10;;;10.70;91.20;;;;;;4885365;29;20061;-79
2024/01/01 16:56:29;;;;;;;0.10;0.10;;;10.70;91.20;;;;;;4895812;29;20521;-85
2024/01/01 16:58:54;;;;;;;0.00;0.00;;;10.70;91.20;;;;;;4893214;29;20079;-79
2024/01/01 17:01:23;;;;;;;0.10;0.10;;;10.70;91.30;;;;;;4900080;29;20120;-77
2024/01/01 17:03:53;;;;;;;0.10;0.10;;;10.80;91.20;;;;;;4899801;29;20027;-87
2024/01/01 17:06:22;;;;;;;0.10;0.10;;;10.80;91.20;;;;;;4883217;29;20428;-84
2024/01/01 17:08:50;;;;;;;0.10;0.10;;;10.80;91.30;;;;;;4899631;29;20030;-86
2024/01/01 17:11:16;;;;;;;0.10;0.10;;;10.80;91.30;;;;;;4888801;29;20052;-87
2024/01/01 17:13:41;;;;;;;0.10;0.10;;;10.90;91.30;;;;;;4880180;29;20428;-87
2024/01/01 17:16:14;;;;;;;0.10;0.10;;;10.90;91.30;;;;;;4884355;29;20036;-90
2024/01/01 17:18:41;;;;;;;0.10;0.10;;;10.80;91.40;;;;;;4881915;29;20040;-85
2024/01/01 17:21:08;;;;;;;0.10;0.10;;;10.80;91.50;;;;;;4884922;29;20020;-86
2024/01/01 17:23:33;;;;;;;0.10;0.10;;;10.80;91.60;;;;;;4901614;29;20016;-84
2024/01/01 17:26:01;;;;;;;0.10;0.10;;;10.80;91.80;;;;;;4899034;29;20033;-86
2024/01/01 17:28:27;;;;;;;0.10;0.10;;;10.80;91.90;;;;;;4902071;29;20027;-88
2024/01/01 17:30:52;;;;;;;0.10;0.10;;;10.80;92.00;;;;;;4889840;29;20047;-88
2024/01/01 17:33:18;;;;;;;0.10;0.10;;;10.80;92.10;;;;;;4920251;29;20025;-78
2024/01/01 17:35:44;;;;;;;0.10;0.10;;;10.90;92.10;;;;;;4917717;29;20036;-87
2024/01/01 17:38:09;;;;;;;0.10;0.10;;;10.90;92.10;;;;;;4920278;29;20044;-85
2024/01/01 17:40:35;;;;;;;0.00;0.00;;;10.90;92.20;;;;;;4919731;29;20079;-80
2024/01/01 17:43:01;;;;;;;0.10;0.10;;;10.90;92.30;;;;;;4916603;29;20025;-82
2024/01/01 17:45:26;;;;;;;0.10;0.10;;;10.90;92.80;;;;;;4920642;29;20731;-83
2024/01/01 17:47:52;;;;;;;0.10;0.10;;;10.90;92.60;;;;;;4919806;29;20031;-88
2024/01/01 17:50:20;;;;;;;0.10;0.10;;;10.90;92.60;;;;;;4917589;29;20506;-87
2024/01/01 17:52:46;;;;;;;0.10;0.10;;;10.90;92.60;;;;;;4920053;29;20037;-80
2024/01/01 17:55:14;;;;;;;0.10;0.10;;;10.90;92.60;;;;;;4918330;29;20083;-81
2024/01/01 17:57:41;;;;;;;0.10;0.10;;;11.00;92.80;;;;;;4917679;29;20031;-80
2024/01/01 18:00:07;;;;;;;0.05;0.05;;;11.00;92.70;;;;;;4920287;29;20036;-81
2024/01/01 18:02:33;;;;;;;0.10;0.10;;;11.00;92.80;;;;;;4921111;29;20025;-80
2024/01/01 18:05:03;;;;;;;0.10;0.10;;;11.10;92.80;;;;;;4918646;29;20028;-85
2024/01/01 18:07:29;;;;;;;0.10;0.10;;;11.00;93.00;;;;;;4919677;29;20062;-79
2024/01/01 18:09:55;;;;;;;0.10;0.10;;;11.10;92.90;;;;;;4918182;29;20103;-77
2024/01/01 18:12:21;;;;;;;0.10;0.10;;;11.10;92.80;;;;;;4918648;29;20025;-82
2024/01/01 18:14:46;;;;;;;0.10;0.10;;;11.20;92.90;;;;;;4920043;29;20032;-79
2024/01/01 18:17:12;;;;;;;0.10;0.10;;;11.20;92.90;;;;;;4920618;29;20028;-77
2024/01/01 18:19:38;;;;;;;0.10;0.10;;;11.20;92.90;;;;;;4923715;29;20622;-79